createdAt,value
2023-01-31T00:03:40.119Z,0.61
2023-01-31T00:33:40.084Z,3.05
2023-01-31T01:18:40.368Z,0.8
2023-01-31T01:33:40.455Z,0.68
2023-01-31T01:48:40.780Z,0.78
2023-01-31T02:03:39.818Z,0.74
2023-01-31T02:18:40.362Z,0.67
2023-01-31T02:33:40.668Z,6.16
2023-01-31T02:48:40.352Z,1.07
2023-01-31T03:03:40.125Z,1.4
2023-01-31T03:18:40.030Z,9.84
2023-01-31T03:33:40.581Z,8.14
2023-01-31T03:48:40.413Z,8.8
2023-01-31T04:18:40.423Z,8.66
2023-01-31T04:33:40.671Z,12.81
2023-01-31T05:03:40.258Z,22.42
2023-01-31T05:18:42.480Z,22.92
2023-01-31T05:33:40.528Z,15.94
2023-01-31T05:48:40.253Z,28.38
2023-01-31T06:48:40.448Z,13.24
2023-01-31T07:03:40.646Z,14.4
2023-01-31T07:18:40.635Z,16.13
2023-01-31T07:33:40.286Z,20.18
2023-01-31T07:48:40.490Z,12.74
2023-01-31T08:03:40.193Z,21.29
2023-01-31T08:18:40.377Z,19.8
2023-01-31T08:33:40.684Z,16.65
2023-01-31T08:48:40.080Z,6.89
2023-01-31T09:03:40.228Z,4.07
2023-01-31T09:18:40.347Z,8.31
2023-01-31T09:48:39.992Z,2.6
2023-01-31T10:03:40.032Z,0.66
2023-01-31T10:33:40.097Z,1.26
2023-01-31T10:48:39.944Z,5.66
2023-01-31T11:03:40.425Z,1.3
2023-01-31T11:18:39.959Z,0.47
2023-01-31T11:33:40.657Z,0.62
2023-01-31T11:48:40.475Z,0.6
2023-01-31T12:03:48.775Z,0.2
2023-01-31T12:18:40.154Z,1.91
2023-01-31T12:33:40.097Z,2.2
2023-01-31T13:18:40.034Z,3.44
2023-01-31T13:33:40.673Z,4.21
2023-01-31T13:48:40.608Z,0.18
2023-01-31T14:03:40.307Z,0.48
2023-01-31T14:18:39.983Z,0.74
2023-01-31T14:48:40.640Z,3.15
2023-01-31T15:03:39.889Z,2.55
2023-01-31T15:33:40.227Z,10.92
2023-01-31T15:48:40.535Z,7.18
2023-01-31T16:03:40.247Z,1.15
2023-01-31T16:33:40.059Z,0.01
2023-01-31T17:18:39.903Z,0.23
2023-01-31T17:33:40.377Z,0.14
2023-01-31T17:48:39.866Z,5.06
2023-01-31T18:03:40.240Z,0.1
2023-01-31T18:18:40.693Z,0.19
2023-01-31T18:33:40.088Z,3.44
2023-01-31T18:48:40.771Z,0.53
2023-01-31T19:18:40.417Z,0.16
2023-01-31T19:33:39.950Z,0.14
2023-01-31T19:48:40.329Z,0.05
2023-01-31T20:18:40.052Z,0.06
2023-01-31T20:33:40.447Z,1.17
2023-01-31T20:48:39.889Z,0.1
2023-01-31T21:03:42.041Z,0.13
2023-01-31T21:18:40.702Z,0.01
2023-01-31T21:33:40.207Z,1.35
2023-01-31T21:48:40.491Z,1.04
2023-01-31T22:03:39.927Z,0.11
2023-01-31T22:18:40.343Z,0.15
2023-01-31T22:33:40.478Z,0.01
2023-01-31T23:03:40.354Z,0.08
2023-01-31T23:18:40.335Z,0.1
2023-01-31T23:33:40.781Z,0.02
2023-01-31T23:48:40.133Z,0.06
